Kathy C — 2CTI7 — position and weather

sailwx.info

Track history (hours):
 
Tides and Currents Weather Stations Pressure Air Temp Water Temp Dewpoint Dewpoint Depression Visibility Wind Speed Wind Dir Waves Ship Positions

Kathy C

Last reported at 2017-Mar-23 01:32 UTC. Time now 2017-Mar-23 02:22 UTC.
Position N 28°09' W 015°25'.

Length 106 m; draft 5.8 m.

Type: Cargo ship. MMSI: 235075591.

Date/timePositionNaut miles runAvg speedWind from/ knotsBaromVisibWave heightAir tempDewpointWater temp
2017-Mar-23 01:32N 28°09' W 015°25'0 0.0
2017-Mar-23 00:32N 28°09' W 015°25'0 0.0
2017-Mar-22 23:23N 28°09' W 015°25'0 0.0
2017-Mar-22 22:23N 28°09' W 015°25'0 0.0
2017-Mar-22 21:26N 28°09' W 015°25'0 0.0
2017-Mar-22 20:26N 28°09' W 015°25'0 0.0
2017-Mar-22 19:26N 28°09' W 015°25'0 0.0
2017-Mar-22 18:29N 28°09' W 015°25'0 0.0
2017-Mar-22 17:33N 28°09' W 015°25'3 2.9
2017-Mar-22 16:33N 28°11' W 015°24'1010.1
2017-Mar-22 15:33N 28°16' W 015°34'10 9.9
2017-Mar-22 14:34N 28°19' W 015°44'1010.0
2017-Mar-22 13:34N 28°23' W 015°55'1010.1
2017-Mar-22 12:32N 28°26' W 016°06'7 1.1
2017-Mar-22 06:18N 28°29' W 016°13'0 0.0
2017-Mar-22 05:33N 28°29' W 016°13'0 0.0
2017-Mar-22 04:30N 28°29' W 016°13'0 0.0
2017-Mar-22 03:06N 28°29' W 016°13'0 0.0
2017-Mar-22 02:33N 28°29' W 016°13'0 0.0
2017-Mar-21 12:30N 28°29' W 016°13'0 0.0
2017-Mar-20 22:14N 28°29' W 016°13'0 0.0
2017-Mar-20 21:17N 28°29' W 016°13'2 2.8
2017-Mar-20 20:32N 28°28' W 016°11'  
2017-Mar-17 23:29N 35°57' W 005°37'9 9.6
2017-Mar-17 22:33N 35°60' W 005°26'10 9.8
2017-Mar-17 21:33N 36°01' W 005°14'10 9.6
2017-Mar-17 20:32N 36°03' W 005°02'215 4.2
2017-Mar-15 17:31N 37°32' W 000°59'8 8.0
2017-Mar-15 16:33N 37°32' W 000°49'1111.5
2017-Mar-15 15:33N 37°34' W 000°35'1211.5
2017-Mar-15 14:33N 37°44' W 000°26'15011.1
2017-Mar-15 01:06N 39°60' E 000°53'711.6
2017-Mar-15 00:33N 40°06' E 000°55'1111.5
2017-Mar-14 23:34N 40°17' E 000°58'1211.6
2017-Mar-14 22:34N 40°28' E 001°02'1211.3
2017-Mar-14 21:30N 40°40' E 001°06'2411.3
2017-Mar-14 19:21N 41°04' E 001°12'3 0.5
2017-Mar-14 13:31N 41°06' E 001°14'  
Track history (hours):
 
Tides and Currents Weather Stations Pressure Air Temp Water Temp Dewpoint Dewpoint Depression Visibility Wind Speed Wind Dir Waves Ship Positions

Kathy C

Last reported at 2017-Mar-23 01:32 UTC. Time now 2017-Mar-23 02:22 UTC.
Position N 28°09' W 015°25'.

Length 106 m; draft 5.8 m.

Type: Cargo ship. MMSI: 235075591.

Date/timePositionNaut miles runAvg speedWind from/ knotsBaromVisibWave heightAir tempDewpointWater temp
2017-Mar-23 01:32N 28°09' W 015°25'0 0.0
2017-Mar-23 00:32N 28°09' W 015°25'0 0.0
2017-Mar-22 23:23N 28°09' W 015°25'0 0.0
2017-Mar-22 22:23N 28°09' W 015°25'0 0.0
2017-Mar-22 21:26N 28°09' W 015°25'0 0.0
2017-Mar-22 20:26N 28°09' W 015°25'0 0.0
2017-Mar-22 19:26N 28°09' W 015°25'0 0.0
2017-Mar-22 18:29N 28°09' W 015°25'0 0.0
2017-Mar-22 17:33N 28°09' W 015°25'3 2.9
2017-Mar-22 16:33N 28°11' W 015°24'1010.1
2017-Mar-22 15:33N 28°16' W 015°34'10 9.9
2017-Mar-22 14:34N 28°19' W 015°44'1010.0
2017-Mar-22 13:34N 28°23' W 015°55'1010.1
2017-Mar-22 12:32N 28°26' W 016°06'7 1.1
2017-Mar-22 06:18N 28°29' W 016°13'0 0.0
2017-Mar-22 05:33N 28°29' W 016°13'0 0.0
2017-Mar-22 04:30N 28°29' W 016°13'0 0.0
2017-Mar-22 03:06N 28°29' W 016°13'0 0.0
2017-Mar-22 02:33N 28°29' W 016°13'0 0.0
2017-Mar-21 12:30N 28°29' W 016°13'0 0.0
2017-Mar-20 22:14N 28°29' W 016°13'0 0.0
2017-Mar-20 21:17N 28°29' W 016°13'2 2.8
2017-Mar-20 20:32N 28°28' W 016°11'  
2017-Mar-17 23:29N 35°57' W 005°37'9 9.6
2017-Mar-17 22:33N 35°60' W 005°26'10 9.8
2017-Mar-17 21:33N 36°01' W 005°14'10 9.6
2017-Mar-17 20:32N 36°03' W 005°02'215 4.2
2017-Mar-15 17:31N 37°32' W 000°59'8 8.0
2017-Mar-15 16:33N 37°32' W 000°49'1111.5
2017-Mar-15 15:33N 37°34' W 000°35'1211.5
2017-Mar-15 14:33N 37°44' W 000°26'15011.1
2017-Mar-15 01:06N 39°60' E 000°53'711.6
2017-Mar-15 00:33N 40°06' E 000°55'1111.5
2017-Mar-14 23:34N 40°17' E 000°58'1211.6
2017-Mar-14 22:34N 40°28' E 001°02'1211.3
2017-Mar-14 21:30N 40°40' E 001°06'2411.3
2017-Mar-14 19:21N 41°04' E 001°12'3 0.5
2017-Mar-14 13:31N 41°06' E 001°14'  

Dump ship's entire track history